createdAt,value
2023-04-01T00:00:53.422Z,100.00
2023-04-01T00:03:57.224Z,100.00
2023-04-01T00:07:00.497Z,100.00
2023-04-01T00:10:03.116Z,100.00
2023-04-01T00:13:05.761Z,100.00
2023-04-01T00:16:20.935Z,100.00
2023-04-01T00:19:24.584Z,100.00
2023-04-01T00:22:28.150Z,100.00
2023-04-01T00:25:31.255Z,100.00
2023-04-01T00:28:36.823Z,100.00
2023-04-01T00:31:40.919Z,100.00
2023-04-01T00:34:45.213Z,100.00
2023-04-01T00:37:48.228Z,100.00
2023-04-01T00:40:51.962Z,100.00
2023-04-01T00:43:54.933Z,100.00
2023-04-01T00:46:58.951Z,100.00
2023-04-01T00:50:01.747Z,100.00
2023-04-01T00:53:05.153Z,100.00
2023-04-01T00:56:13.696Z,100.00
2023-04-01T00:59:20.660Z,100.00
2023-04-01T01:02:24.733Z,100.00
2023-04-01T01:05:49.546Z,100.00
2023-04-01T01:09:08.688Z,100.00
2023-04-01T01:12:16.088Z,100.00
2023-04-01T01:15:23.426Z,100.00
2023-04-01T01:18:37.758Z,100.00
2023-04-01T01:22:03.829Z,100.00
2023-04-01T01:25:23.839Z,100.00
2023-04-01T01:28:39.964Z,100.00
2023-04-01T01:31:52.481Z,100.00
2023-04-01T01:35:01.134Z,100.00
2023-04-01T01:38:08.249Z,100.00
2023-04-01T01:41:14.238Z,100.00
2023-04-01T01:44:18.147Z,100.00
2023-04-01T01:47:23.407Z,100.00
2023-04-01T01:50:27.871Z,100.00
2023-04-01T01:53:31.882Z,100.00
2023-04-01T01:56:36.245Z,100.00
2023-04-01T01:59:41.602Z,100.00
2023-04-01T02:02:46.190Z,100.00
2023-04-01T02:05:49.750Z,100.00
2023-04-01T02:08:58.191Z,100.00
2023-04-01T02:12:05.398Z,100.00
2023-04-01T02:15:11.785Z,100.00
2023-04-01T02:18:16.398Z,100.00
2023-04-01T02:21:20.781Z,100.00
2023-04-01T02:24:27.139Z,100.00
2023-04-01T02:27:30.567Z,100.00
2023-04-01T02:30:35.618Z,100.00
2023-04-01T02:33:39.794Z,100.00
2023-04-01T02:36:42.912Z,100.00
2023-04-01T02:39:46.883Z,100.00
2023-04-01T02:42:49.569Z,100.00
2023-04-01T02:45:52.350Z,100.00
2023-04-01T02:48:55.715Z,100.00
2023-04-01T02:51:58.305Z,100.00
2023-04-01T02:55:02.261Z,100.00
2023-04-01T02:58:05.057Z,100.00
2023-04-01T03:01:09.196Z,100.00
2023-04-01T03:04:11.876Z,100.00
2023-04-01T03:07:14.777Z,100.00
2023-04-01T03:10:19.245Z,100.00
2023-04-01T03:13:21.818Z,100.00
2023-04-01T03:16:24.593Z,100.00
2023-04-01T03:19:27.227Z,100.00
2023-04-01T03:22:29.889Z,100.00
2023-04-01T03:25:34.524Z,100.00
2023-04-01T03:28:37.372Z,100.00
2023-04-01T03:31:39.972Z,100.00
2023-04-01T03:34:42.755Z,100.00
2023-04-01T03:37:45.439Z,100.00
2023-04-01T03:40:49.516Z,100.00
2023-04-01T03:43:52.181Z,100.00
2023-04-01T03:46:54.767Z,100.00
2023-04-01T03:49:57.361Z,100.00
2023-04-01T03:52:59.934Z,100.00
2023-04-01T03:56:07.486Z,100.00
2023-04-01T03:59:10.428Z,100.00
2023-04-01T04:02:13.009Z,100.00
2023-04-01T04:05:16.079Z,100.00
2023-04-01T04:08:19.339Z,100.00
2023-04-01T04:11:24.394Z,100.00
2023-04-01T04:14:27.217Z,100.00
2023-04-01T04:17:29.832Z,100.00
2023-04-01T04:20:32.460Z,100.00
2023-04-01T04:23:35.655Z,100.00
2023-04-01T04:26:39.657Z,100.00
2023-04-01T04:29:42.452Z,100.00
2023-04-01T04:32:45.156Z,100.00
2023-04-01T04:35:47.849Z,100.00
2023-04-01T04:38:50.554Z,100.00
2023-04-01T04:41:54.484Z,100.00
2023-04-01T04:44:57.108Z,100.00
2023-04-01T04:47:59.703Z,100.00
2023-04-01T04:51:02.582Z,100.00
2023-04-01T04:54:06.297Z,100.00
2023-04-01T04:57:10.397Z,100.00
2023-04-01T05:00:13.768Z,100.00
2023-04-01T05:03:16.470Z,100.00
2023-04-01T05:06:21.651Z,100.00
2023-04-01T05:09:26.107Z,100.00
2023-04-01T05:12:30.028Z,100.00
2023-04-01T05:15:32.794Z,100.00
2023-04-01T05:18:35.944Z,100.00
2023-04-01T05:21:38.566Z,100.00
2023-04-01T05:24:41.165Z,100.00
2023-04-01T05:27:45.147Z,100.00
2023-04-01T05:30:48.156Z,100.00
2023-04-01T05:33:50.820Z,100.00
2023-04-01T05:36:53.420Z,100.00
2023-04-01T05:39:56.228Z,100.00
2023-04-01T05:43:00.847Z,100.00
2023-04-01T05:46:03.539Z,100.00
2023-04-01T05:49:06.162Z,100.00
2023-04-01T05:52:09.968Z,100.00
2023-04-01T05:55:12.792Z,100.00
2023-04-01T05:58:16.734Z,100.00
2023-04-01T06:01:19.678Z,100.00
2023-04-01T06:04:22.623Z,100.00
2023-04-01T06:07:25.688Z,100.00
2023-04-01T06:10:43.258Z,100.00
2023-04-01T06:14:09.388Z,100.00
2023-04-01T06:17:25.742Z,100.00
2023-04-01T06:20:40.446Z,100.00
2023-04-01T06:23:59.984Z,100.00
2023-04-01T06:27:14.837Z,100.00
2023-04-01T06:30:43.092Z,100.00
2023-04-01T06:33:58.016Z,100.00
2023-04-01T06:37:18.894Z,100.00
2023-04-01T06:40:40.831Z,100.00
2023-04-01T06:43:55.730Z,100.00
2023-04-01T06:47:05.180Z,100.00
2023-04-01T06:50:19.524Z,100.00
2023-04-01T06:53:26.351Z,100.00
2023-04-01T06:56:31.438Z,100.00
2023-04-01T06:59:37.477Z,100.00
2023-04-01T07:02:45.268Z,100.00
2023-04-01T07:05:47.980Z,100.00
2023-04-01T07:08:53.337Z,100.00
2023-04-01T07:12:01.748Z,100.00
2023-04-01T07:15:14.308Z,100.00
2023-04-01T07:18:24.544Z,100.00
2023-04-01T07:21:33.745Z,100.00
2023-04-01T07:24:39.644Z,100.00
2023-04-01T07:27:43.524Z,100.00
2023-04-01T07:30:54.512Z,100.00
2023-04-01T07:34:10.209Z,100.00
2023-04-01T07:37:17.148Z,100.00
2023-04-01T07:40:28.872Z,100.00
2023-04-01T07:43:44.986Z,100.00
2023-04-01T07:47:13.249Z,100.00
2023-04-01T07:50:24.940Z,100.00
2023-04-01T07:53:37.802Z,100.00
2023-04-01T07:56:47.660Z,100.00
2023-04-01T08:00:01.253Z,100.00
2023-04-01T08:03:21.698Z,100.00
2023-04-01T08:06:32.259Z,100.00
2023-04-01T08:09:45.213Z,100.00
2023-04-01T08:13:01.847Z,100.00
2023-04-01T08:16:11.762Z,100.00
2023-04-01T08:19:28.877Z,100.00
2023-04-01T08:22:38.464Z,100.00
2023-04-01T08:25:46.753Z,100.00
2023-04-01T08:28:54.948Z,100.00
2023-04-01T08:32:04.168Z,100.00
2023-04-01T08:35:16.509Z,100.00
2023-04-01T08:38:25.619Z,100.00
2023-04-01T08:41:46.803Z,100.00
2023-04-01T08:45:07.734Z,100.00
2023-04-01T08:48:33.720Z,100.00
2023-04-01T08:51:56.846Z,100.00
2023-04-01T08:55:28.132Z,100.00
2023-04-01T08:59:04.137Z,100.00
2023-04-01T09:02:28.639Z,100.00
2023-04-01T09:06:15.872Z,100.00
2023-04-01T09:10:00.005Z,100.00
2023-04-01T09:13:17.587Z,100.00
2023-04-01T09:16:31.029Z,100.00
2023-04-01T09:19:52.376Z,100.00
2023-04-01T09:23:12.649Z,100.00
2023-04-01T09:26:32.861Z,100.00
2023-04-01T09:30:21.048Z,100.00
2023-04-01T09:34:05.350Z,100.00
2023-04-01T09:37:21.005Z,100.00
2023-04-01T09:40:33.421Z,100.00
2023-04-01T09:43:52.236Z,100.00
2023-04-01T09:47:11.432Z,100.00
2023-04-01T09:50:33.855Z,100.00
2023-04-01T09:53:54.496Z,100.00
2023-04-01T09:57:18.715Z,100.00
2023-04-01T10:00:41.519Z,100.00
2023-04-01T10:04:09.169Z,100.00
2023-04-01T10:07:54.661Z,100.00
2023-04-01T10:11:24.876Z,100.00
2023-04-01T10:15:09.130Z,100.00
2023-04-01T10:18:40.243Z,100.00
2023-04-01T10:22:10.867Z,100.00
2023-04-01T10:25:39.708Z,100.00
2023-04-01T10:29:22.515Z,100.00
2023-04-01T10:32:58.887Z,100.00
2023-04-01T10:36:35.332Z,100.00
2023-04-01T10:40:23.478Z,100.00
2023-04-01T10:44:06.097Z,100.00
2023-04-01T10:47:57.013Z,100.00
2023-04-01T10:51:12.936Z,100.00
2023-04-01T10:54:31.321Z,100.00
2023-04-01T10:58:00.840Z,100.00
2023-04-01T11:01:45.978Z,100.00
2023-04-01T11:05:18.783Z,100.00
2023-04-01T11:08:59.954Z,100.00
2023-04-01T11:12:22.159Z,100.00
2023-04-01T11:15:50.936Z,100.00
2023-04-01T11:19:29.793Z,100.00
2023-04-01T11:22:48.254Z,100.00
2023-04-01T11:26:01.990Z,100.00
2023-04-01T11:29:56.679Z,100.00
2023-04-01T11:33:10.948Z,100.00
2023-04-01T11:36:45.791Z,100.00
2023-04-01T11:40:07.039Z,100.00
2023-04-01T11:43:32.256Z,100.00
2023-04-01T11:46:45.362Z,100.00
2023-04-01T11:50:05.074Z,100.00
2023-04-01T11:53:18.431Z,100.00
2023-04-01T11:56:52.043Z,100.00
2023-04-01T12:00:16.791Z,100.00
2023-04-01T12:03:37.640Z,100.00
2023-04-01T12:06:50.763Z,100.00
2023-04-01T12:10:04.599Z,100.00
2023-04-01T12:13:16.556Z,100.00
2023-04-01T12:16:33.056Z,100.00
2023-04-01T12:19:47.309Z,100.00
2023-04-01T12:23:01.239Z,100.00
2023-04-01T12:26:30.102Z,100.00
2023-04-01T12:29:51.406Z,100.00
2023-04-01T12:33:07.047Z,100.00
2023-04-01T12:36:21.032Z,100.00
2023-04-01T12:39:51.800Z,100.00
2023-04-01T12:43:07.649Z,100.00
2023-04-01T12:46:19.703Z,100.00
2023-04-01T12:49:36.182Z,100.00
2023-04-01T12:52:54.055Z,100.00
2023-04-01T12:55:58.157Z,100.00
2023-04-01T12:59:28.190Z,100.00
2023-04-01T13:02:47.194Z,100.00
2023-04-01T13:06:23.384Z,100.00
2023-04-01T13:09:39.951Z,100.00
2023-04-01T13:13:17.597Z,100.00
2023-04-01T13:16:25.328Z,100.00
2023-04-01T13:19:35.384Z,100.00
2023-04-01T13:22:53.718Z,100.00
2023-04-01T13:26:14.594Z,100.00
2023-04-01T13:29:23.867Z,100.00
2023-04-01T13:32:43.386Z,100.00
2023-04-01T13:35:56.831Z,100.00
2023-04-01T13:39:17.163Z,100.00
2023-04-01T13:42:27.251Z,100.00
2023-04-01T13:45:41.181Z,100.00
2023-04-01T13:49:01.823Z,100.00
2023-04-01T13:52:19.677Z,100.00
2023-04-01T13:55:36.612Z,100.00
2023-04-01T13:59:15.519Z,100.00
2023-04-01T14:02:42.529Z,100.00
2023-04-01T14:05:53.590Z,100.00
2023-04-01T14:09:29.574Z,100.00
2023-04-01T14:12:38.726Z,100.00
2023-04-01T14:15:52.664Z,100.00
2023-04-01T14:19:13.848Z,100.00
2023-04-01T14:22:29.048Z,100.00
2023-04-01T14:25:50.281Z,100.00
2023-04-01T14:29:01.822Z,100.00
2023-04-01T14:32:13.564Z,100.00
2023-04-01T14:35:28.852Z,100.00
2023-04-01T14:38:49.776Z,100.00
2023-04-01T14:42:19.001Z,100.00
2023-04-01T14:45:38.882Z,100.00
2023-04-01T14:48:53.619Z,100.00
2023-04-01T14:52:05.917Z,100.00
2023-04-01T14:55:34.180Z,100.00
2023-04-01T14:58:48.172Z,100.00
2023-04-01T15:01:57.890Z,100.00
2023-04-01T15:05:13.055Z,100.00
2023-04-01T15:08:22.944Z,100.00
2023-04-01T15:11:46.517Z,100.00
2023-04-01T15:15:09.904Z,100.00
2023-04-01T15:18:20.974Z,100.00
2023-04-01T15:21:43.188Z,100.00
2023-04-01T15:24:53.244Z,100.00
2023-04-01T15:28:05.903Z,100.00
2023-04-01T15:31:17.661Z,100.00
2023-04-01T15:34:32.647Z,100.00
2023-04-01T15:37:42.723Z,100.00
2023-04-01T15:40:55.501Z,100.00
2023-04-01T15:43:58.137Z,100.00
2023-04-01T15:47:02.783Z,100.00
2023-04-01T15:50:38.971Z,100.00
2023-04-01T15:54:03.956Z,100.00
2023-04-01T15:57:20.813Z,100.00
2023-04-01T16:00:29.508Z,100.00
2023-04-01T16:03:40.984Z,100.00
2023-04-01T16:07:00.999Z,100.00
2023-04-01T16:10:24.959Z,100.00
2023-04-01T16:13:46.010Z,100.00
2023-04-01T16:17:02.980Z,100.00
2023-04-01T16:20:19.818Z,100.00
2023-04-01T16:23:26.414Z,100.00
2023-04-01T16:26:38.240Z,100.00
2023-04-01T16:29:48.797Z,100.00
2023-04-01T16:32:56.250Z,100.00
2023-04-01T16:36:08.807Z,100.00
2023-04-01T16:39:28.353Z,100.00
2023-04-01T16:42:42.363Z,100.00
2023-04-01T16:45:55.176Z,100.00
2023-04-01T16:49:04.920Z,100.00
2023-04-01T16:52:17.464Z,100.00
2023-04-01T16:55:23.135Z,100.00
2023-04-01T16:58:29.461Z,100.00
2023-04-01T17:01:45.480Z,100.00
2023-04-01T17:04:50.715Z,100.00
2023-04-01T17:08:08.195Z,100.00
2023-04-01T17:11:19.734Z,100.00
2023-04-01T17:14:30.061Z,100.00
2023-04-01T17:17:45.558Z,100.00
2023-04-01T17:20:52.404Z,100.00
2023-04-01T17:24:07.913Z,100.00
2023-04-01T17:27:24.270Z,100.00
2023-04-01T17:30:36.252Z,100.00
2023-04-01T17:33:54.658Z,100.00
2023-04-01T17:37:10.280Z,100.00
2023-04-01T17:40:28.414Z,100.00
2023-04-01T17:43:42.945Z,100.00
2023-04-01T17:47:00.860Z,100.00
2023-04-01T17:50:21.485Z,100.00
2023-04-01T17:53:35.327Z,100.00
2023-04-01T17:56:55.671Z,100.00
2023-04-01T18:00:04.720Z,100.00
2023-04-01T18:03:19.094Z,100.00
2023-04-01T18:06:32.314Z,100.00
2023-04-01T18:09:48.111Z,100.00
2023-04-01T18:13:18.085Z,100.00
2023-04-01T18:16:36.103Z,100.00
2023-04-01T18:19:48.393Z,100.00
2023-04-01T18:22:59.354Z,100.00
2023-04-01T18:26:08.271Z,100.00
2023-04-01T18:29:20.201Z,100.00
2023-04-01T18:32:36.038Z,100.00
2023-04-01T18:35:52.583Z,100.00
2023-04-01T18:39:02.357Z,100.00
2023-04-01T18:42:13.164Z,100.00
2023-04-01T18:45:25.448Z,100.00
2023-04-01T18:48:43.678Z,100.00
2023-04-01T18:51:54.648Z,100.00
2023-04-01T18:55:33.813Z,100.00
2023-04-01T18:58:45.597Z,100.00
2023-04-01T19:01:58.684Z,100.00
2023-04-01T19:05:06.378Z,100.00
2023-04-01T19:08:22.035Z,100.00
2023-04-01T19:11:33.620Z,99.56
2023-04-01T19:14:53.510Z,98.55
2023-04-01T19:18:09.788Z,100.00
2023-04-01T19:21:18.621Z,97.73
2023-04-01T19:24:41.354Z,97.58
2023-04-01T19:27:50.667Z,97.49
2023-04-01T19:30:59.056Z,97.22
2023-04-01T19:34:10.598Z,97.12
2023-04-01T19:37:27.603Z,96.61
2023-04-01T19:40:39.437Z,96.86
2023-04-01T19:43:54.713Z,95.46
2023-04-01T19:47:04.362Z,95.38
2023-04-01T19:50:28.616Z,93.79
2023-04-01T19:53:38.645Z,92.79
2023-04-01T19:56:47.669Z,91.82
2023-04-01T19:59:55.320Z,90.95
2023-04-01T20:03:06.899Z,92.68
2023-04-01T20:06:19.362Z,90.63
2023-04-01T20:09:53.809Z,91.11
2023-04-01T20:13:04.502Z,92.24
2023-04-01T20:16:09.723Z,93.63
2023-04-01T20:19:14.133Z,93.04
2023-04-01T20:22:29.627Z,91.65
2023-04-01T20:25:37.156Z,91.15
2023-04-01T20:28:50.773Z,89.68
2023-04-01T20:32:04.472Z,91.83
2023-04-01T20:35:24.888Z,90.09
2023-04-01T20:38:56.538Z,91.52
2023-04-01T20:42:21.555Z,91.20
2023-04-01T20:45:39.963Z,91.24
2023-04-01T20:49:21.537Z,90.15
2023-04-01T20:52:34.917Z,92.14
2023-04-01T20:56:03.816Z,91.87
2023-04-01T20:59:26.022Z,93.40
2023-04-01T21:02:44.990Z,92.55
2023-04-01T21:06:03.625Z,92.34
2023-04-01T21:09:24.215Z,92.24
2023-04-01T21:12:36.553Z,91.09
2023-04-01T21:15:53.135Z,91.13
2023-04-01T21:19:06.189Z,91.95
2023-04-01T21:22:36.085Z,91.88
2023-04-01T21:26:00.722Z,91.66
2023-04-01T21:29:23.415Z,91.41
2023-04-01T21:33:01.481Z,93.54
2023-04-01T21:36:16.320Z,91.88
2023-04-01T21:39:29.384Z,91.21
2023-04-01T21:42:45.780Z,90.88
2023-04-01T21:46:12.272Z,90.72
2023-04-01T21:49:37.875Z,92.70
2023-04-01T21:52:58.029Z,90.73
2023-04-01T21:56:41.891Z,90.37
2023-04-01T22:00:16.750Z,91.16
2023-04-01T22:03:49.084Z,91.69
2023-04-01T22:06:58.697Z,91.33
2023-04-01T22:10:07.451Z,91.42
2023-04-01T22:13:19.571Z,90.73
2023-04-01T22:16:29.412Z,91.07
2023-04-01T22:19:42.022Z,92.32
2023-04-01T22:22:58.645Z,91.33
2023-04-01T22:26:08.001Z,90.86
2023-04-01T22:29:16.805Z,91.67
2023-04-01T22:32:25.849Z,90.34
2023-04-01T22:35:39.446Z,92.16
2023-04-01T22:39:04.384Z,90.68
2023-04-01T22:42:17.363Z,92.18
2023-04-01T22:45:46.935Z,91.99
2023-04-01T22:48:58.816Z,93.05
2023-04-01T22:52:08.590Z,92.16
2023-04-01T22:55:15.454Z,93.75
2023-04-01T22:58:20.787Z,92.79
2023-04-01T23:01:28.233Z,92.04
2023-04-01T23:04:35.739Z,92.77
2023-04-01T23:07:50.039Z,93.63
2023-04-01T23:10:56.419Z,92.75
2023-04-01T23:14:08.886Z,91.58
2023-04-01T23:17:27.719Z,92.20
2023-04-01T23:20:40.887Z,92.45
2023-04-01T23:23:57.477Z,90.91
2023-04-01T23:27:04.212Z,90.42
2023-04-01T23:30:47.271Z,90.30
2023-04-01T23:33:55.882Z,92.45
2023-04-01T23:37:03.352Z,91.15
2023-04-01T23:40:14.184Z,92.13
2023-04-01T23:43:23.921Z,92.44
2023-04-01T23:46:27.791Z,92.23
2023-04-01T23:49:36.392Z,92.13
2023-04-01T23:52:44.034Z,91.89
2023-04-01T23:55:48.603Z,90.77
2023-04-01T23:58:57.776Z,92.33
